createdAt,value
2022-07-25T00:01:09.481Z,21.10
2022-07-25T00:03:39.147Z,21.00
2022-07-25T00:06:13.032Z,21.00
2022-07-25T00:08:47.268Z,21.00
2022-07-25T00:11:15.550Z,20.90
2022-07-25T00:13:43.945Z,20.90
2022-07-25T00:16:12.058Z,20.90
2022-07-25T00:18:40.540Z,20.80
2022-07-25T00:21:08.580Z,20.80
2022-07-25T00:23:36.875Z,20.80
2022-07-25T00:26:06.516Z,20.70
2022-07-25T00:28:34.809Z,20.70
2022-07-25T00:31:02.893Z,20.70
2022-07-25T00:33:31.181Z,20.60
2022-07-25T00:35:59.781Z,20.60
2022-07-25T00:38:28.083Z,20.60
2022-07-25T00:40:56.412Z,20.50
2022-07-25T00:43:26.138Z,20.50
2022-07-25T00:45:54.165Z,20.40
2022-07-25T00:48:22.482Z,20.40
2022-07-25T00:50:50.600Z,20.40
2022-07-25T00:53:19.853Z,20.50
2022-07-25T00:55:48.752Z,20.50
2022-07-25T00:58:18.787Z,20.50
2022-07-25T01:00:48.899Z,20.40
2022-07-25T01:03:17.754Z,20.40
2022-07-25T01:05:50.237Z,20.40
2022-07-25T01:08:22.419Z,20.40
2022-07-25T01:10:51.055Z,20.30
2022-07-25T01:13:19.092Z,20.30
2022-07-25T01:15:50.543Z,20.20
2022-07-25T01:18:18.788Z,20.20
2022-07-25T01:20:48.676Z,20.10
2022-07-25T01:23:16.795Z,20.10
2022-07-25T01:25:45.883Z,20.00
2022-07-25T01:28:14.867Z,20.00
2022-07-25T01:30:43.374Z,20.00
2022-07-25T01:33:15.842Z,20.00
2022-07-25T01:35:44.390Z,19.90
2022-07-25T01:38:14.836Z,19.90
2022-07-25T01:40:43.389Z,19.80
2022-07-25T01:43:11.889Z,19.80
2022-07-25T01:45:40.014Z,19.70
2022-07-25T01:48:08.707Z,19.70
2022-07-25T01:50:36.794Z,19.70
2022-07-25T01:53:05.579Z,19.60
2022-07-25T01:55:35.041Z,19.60
2022-07-25T01:58:03.330Z,19.60
2022-07-25T02:00:31.481Z,19.60
2022-07-25T02:03:17.047Z,19.50
2022-07-25T02:05:45.154Z,19.50
2022-07-25T02:08:13.442Z,19.50
2022-07-25T02:10:43.401Z,19.50
2022-07-25T02:13:11.436Z,19.50
2022-07-25T02:15:39.981Z,19.50
2022-07-25T02:18:08.284Z,19.40
2022-07-25T02:20:36.598Z,19.50
2022-07-25T02:23:04.977Z,19.50
2022-07-25T02:25:34.487Z,19.50
2022-07-25T02:28:04.209Z,19.50
2022-07-25T02:30:32.497Z,19.50
2022-07-25T02:33:00.944Z,19.50
2022-07-25T02:35:29.229Z,19.50
2022-07-25T02:37:57.222Z,19.50
2022-07-25T02:40:25.471Z,19.50
2022-07-25T02:42:53.656Z,19.50
2022-07-25T02:45:23.275Z,19.60
2022-07-25T02:47:51.434Z,19.60
2022-07-25T02:50:19.803Z,19.70
2022-07-25T02:52:47.982Z,19.70
2022-07-25T02:55:16.014Z,19.80
2022-07-25T02:57:44.273Z,19.80
2022-07-25T03:00:13.763Z,19.80
2022-07-25T03:02:43.567Z,19.80
2022-07-25T03:05:13.536Z,19.70
2022-07-25T03:07:42.419Z,19.80
2022-07-25T03:10:13.048Z,19.70
2022-07-25T03:12:42.841Z,19.70
2022-07-25T03:15:12.922Z,19.80
2022-07-25T03:17:43.262Z,19.70
2022-07-25T03:20:12.207Z,19.80
2022-07-25T03:22:40.509Z,19.70
2022-07-25T03:25:15.753Z,19.70
2022-07-25T03:27:50.689Z,19.70
2022-07-25T03:30:19.032Z,19.70
2022-07-25T03:32:48.670Z,19.60
2022-07-25T03:35:17.174Z,19.60
2022-07-25T03:37:45.610Z,19.60
2022-07-25T03:40:16.033Z,19.60
2022-07-25T03:42:44.803Z,19.50
2022-07-25T03:45:13.192Z,19.50
2022-07-25T03:47:41.237Z,19.50
2022-07-25T03:50:11.891Z,19.50
2022-07-25T03:52:39.883Z,19.40
2022-07-25T03:55:09.473Z,19.40
2022-07-25T03:57:37.603Z,19.50
2022-07-25T04:00:07.767Z,19.60
2022-07-25T04:02:37.536Z,19.70
2022-07-25T04:05:06.564Z,19.80
2022-07-25T04:07:36.018Z,19.80
2022-07-25T04:10:05.321Z,19.90
2022-07-25T04:12:33.636Z,20.00
2022-07-25T04:15:02.022Z,20.10
2022-07-25T04:17:30.265Z,20.10
2022-07-25T04:19:58.545Z,20.10
2022-07-25T04:22:27.043Z,20.10
2022-07-25T04:24:56.389Z,20.20
2022-07-25T04:27:24.961Z,20.20
2022-07-25T04:29:53.003Z,20.30
2022-07-25T04:32:23.528Z,20.20
2022-07-25T04:34:52.551Z,20.30
2022-07-25T04:37:20.805Z,20.30
2022-07-25T04:39:48.955Z,20.40
2022-07-25T04:42:18.577Z,20.50
2022-07-25T04:44:46.642Z,20.50
2022-07-25T04:47:14.742Z,20.60
2022-07-25T04:49:42.862Z,20.60
2022-07-25T04:52:10.873Z,20.60
2022-07-25T04:54:39.254Z,20.60
2022-07-25T04:57:07.315Z,20.70
2022-07-25T04:59:36.911Z,20.80
2022-07-25T05:02:05.029Z,20.80
2022-07-25T05:04:33.119Z,20.90
2022-07-25T05:07:03.297Z,20.90
2022-07-25T05:09:31.492Z,21.00
2022-07-25T05:11:59.534Z,21.10
2022-07-25T05:14:27.933Z,21.10
2022-07-25T05:16:57.382Z,21.10
2022-07-25T05:19:26.172Z,21.20
2022-07-25T05:21:54.300Z,21.30
2022-07-25T05:24:23.105Z,21.40
2022-07-25T05:26:51.217Z,21.60
2022-07-25T05:29:19.516Z,21.70
2022-07-25T05:31:47.753Z,21.80
2022-07-25T05:34:17.190Z,21.90
2022-07-25T05:36:47.329Z,21.90
2022-07-25T05:39:15.902Z,21.90
2022-07-25T05:41:44.162Z,21.90
2022-07-25T05:47:00.306Z,21.90
2022-07-25T05:49:29.837Z,21.90
2022-07-25T05:51:58.121Z,22.00
2022-07-25T05:54:26.222Z,22.00
2022-07-25T05:56:55.883Z,22.10
2022-07-25T05:59:24.090Z,22.20
2022-07-25T06:01:52.405Z,22.30
2022-07-25T06:04:25.403Z,22.40
2022-07-25T06:06:56.841Z,22.50
2022-07-25T06:09:25.529Z,22.70
2022-07-25T06:12:00.417Z,22.90
2022-07-25T06:14:29.908Z,23.10
2022-07-25T06:16:58.084Z,23.30
2022-07-25T06:19:26.302Z,23.50
2022-07-25T06:21:54.369Z,23.60
2022-07-25T06:24:24.023Z,23.60
2022-07-25T06:26:52.127Z,23.60
2022-07-25T06:29:20.250Z,23.70
2022-07-25T06:31:48.418Z,23.70
2022-07-25T06:34:16.601Z,23.80
2022-07-25T06:36:44.694Z,24.00
2022-07-25T06:39:12.923Z,24.30
2022-07-25T06:41:42.287Z,24.60
2022-07-25T06:44:10.689Z,25.00
2022-07-25T06:46:38.810Z,25.40
2022-07-25T06:49:07.282Z,25.70
2022-07-25T06:51:35.939Z,26.00
2022-07-25T06:54:04.574Z,26.50
2022-07-25T06:56:33.203Z,27.00
2022-07-25T06:59:02.595Z,27.50
2022-07-25T07:01:30.948Z,27.70
2022-07-25T07:03:59.085Z,27.80
2022-07-25T07:06:27.329Z,28.00
2022-07-25T07:08:56.092Z,28.40
2022-07-25T07:11:24.440Z,28.90
2022-07-25T07:13:52.467Z,30.10
2022-07-25T07:16:21.952Z,31.10
2022-07-25T07:18:50.048Z,32.20
2022-07-25T07:21:21.421Z,32.80
2022-07-25T07:23:53.452Z,34.00
2022-07-25T07:26:22.417Z,35.80
2022-07-25T07:28:50.643Z,37.20
2022-07-25T07:31:19.305Z,37.60
2022-07-25T07:33:48.953Z,38.50
2022-07-25T07:36:17.592Z,38.60
2022-07-25T07:38:45.742Z,39.40
2022-07-25T07:41:14.073Z,40.40
2022-07-25T07:43:42.367Z,40.60
2022-07-25T07:46:10.507Z,41.40
2022-07-25T07:48:38.902Z,42.20
2022-07-25T07:51:08.660Z,41.50
2022-07-25T07:53:54.336Z,40.30
2022-07-25T07:56:22.423Z,39.40
2022-07-25T07:58:50.858Z,38.40
2022-07-25T08:01:18.977Z,37.40
2022-07-25T08:03:47.236Z,36.80
2022-07-25T08:06:16.743Z,36.70
2022-07-25T08:08:45.061Z,37.80
2022-07-25T08:11:13.029Z,39.70
2022-07-25T08:13:41.162Z,40.70
2022-07-25T08:16:11.952Z,42.80
2022-07-25T08:18:40.422Z,44.00
2022-07-25T08:21:08.726Z,44.50
2022-07-25T08:23:39.250Z,44.00
2022-07-25T08:26:08.204Z,44.10
2022-07-25T08:28:36.309Z,44.40
2022-07-25T08:31:04.693Z,45.50
2022-07-25T08:33:32.810Z,46.40
2022-07-25T08:36:01.297Z,46.80
2022-07-25T08:38:29.997Z,47.50
2022-07-25T08:40:59.956Z,48.80
2022-07-25T08:43:32.863Z,49.00
2022-07-25T08:46:03.142Z,48.20
2022-07-25T08:48:31.618Z,49.10
2022-07-25T08:51:00.860Z,49.50
2022-07-25T08:53:33.183Z,50.10
2022-07-25T08:56:10.659Z,49.70
2022-07-25T08:58:43.967Z,49.30
2022-07-25T09:01:12.799Z,47.20
2022-07-25T09:03:41.129Z,46.30
2022-07-25T09:06:20.060Z,45.20
2022-07-25T09:08:55.694Z,43.90
2022-07-25T09:11:33.882Z,42.10
2022-07-25T09:14:05.260Z,40.60
2022-07-25T09:16:35.630Z,41.10
2022-07-25T09:19:11.902Z,41.30
2022-07-25T09:21:41.250Z,40.90
2022-07-25T09:24:15.836Z,40.70
2022-07-25T09:26:47.497Z,41.00
2022-07-25T09:29:23.951Z,41.00
2022-07-25T09:31:53.198Z,41.10
2022-07-25T09:34:34.058Z,40.60
2022-07-25T09:37:02.836Z,40.90
2022-07-25T09:39:45.015Z,41.40
2022-07-25T09:42:24.312Z,41.70
2022-07-25T09:45:05.409Z,42.20
2022-07-25T09:47:37.827Z,42.70
2022-07-25T09:50:07.758Z,42.80
2022-07-25T09:52:36.712Z,42.80
2022-07-25T09:55:06.527Z,43.40
2022-07-25T09:57:35.914Z,43.90
2022-07-25T10:00:05.962Z,44.00
2022-07-25T10:02:48.490Z,44.90
2022-07-25T10:05:20.671Z,45.30
2022-07-25T10:07:51.482Z,44.20
2022-07-25T10:10:28.550Z,44.40
2022-07-25T10:13:07.881Z,44.80
2022-07-25T10:15:46.305Z,45.80
2022-07-25T10:18:15.420Z,47.40
2022-07-25T10:20:44.322Z,48.40
2022-07-25T10:23:24.045Z,49.80
2022-07-25T10:26:03.132Z,50.60
2022-07-25T10:28:43.601Z,52.30
2022-07-25T10:31:36.362Z,53.50
2022-07-25T10:34:07.747Z,54.20
2022-07-25T10:36:43.918Z,54.60
2022-07-25T10:39:15.113Z,54.70
2022-07-25T10:41:45.647Z,54.50
2022-07-25T10:44:16.645Z,51.40
2022-07-25T10:46:45.798Z,49.60
2022-07-25T10:49:23.554Z,47.70
2022-07-25T10:51:57.991Z,45.90
2022-07-25T10:54:26.148Z,44.90
2022-07-25T10:56:57.130Z,43.80
2022-07-25T10:59:31.719Z,42.80
2022-07-25T11:02:00.095Z,42.80
2022-07-25T11:04:28.771Z,43.50
2022-07-25T11:06:56.906Z,43.80
2022-07-25T11:09:28.173Z,44.10
2022-07-25T11:11:59.065Z,44.50
2022-07-25T11:14:32.946Z,44.70
2022-07-25T11:17:13.203Z,44.50
2022-07-25T11:19:42.683Z,43.90
2022-07-25T11:22:11.116Z,44.00
2022-07-25T11:24:41.274Z,44.10
2022-07-25T11:27:12.498Z,44.00
2022-07-25T11:29:42.690Z,45.40
2022-07-25T11:32:12.574Z,46.50
2022-07-25T11:34:44.936Z,45.90
2022-07-25T11:37:14.500Z,45.80
2022-07-25T11:39:45.141Z,45.90
2022-07-25T11:42:16.301Z,46.70
2022-07-25T11:44:48.481Z,48.30
2022-07-25T11:47:26.001Z,48.80
2022-07-25T11:49:56.188Z,47.90
2022-07-25T11:52:26.243Z,46.40
2022-07-25T11:54:55.595Z,44.90
2022-07-25T11:57:24.916Z,43.40
2022-07-25T11:59:54.625Z,42.20
2022-07-25T12:02:24.850Z,41.00
2022-07-25T12:04:58.492Z,40.10
2022-07-25T12:07:44.627Z,40.00
2022-07-25T12:10:16.684Z,39.90
2022-07-25T12:12:50.698Z,39.40
2022-07-25T12:15:22.017Z,39.40
2022-07-25T12:17:51.319Z,39.10
2022-07-25T12:20:21.657Z,39.50
2022-07-25T12:22:52.361Z,38.90
2022-07-25T12:25:20.706Z,39.00
2022-07-25T12:27:49.830Z,39.60
2022-07-25T12:30:18.525Z,39.70
2022-07-25T12:32:48.042Z,40.00
2022-07-25T12:35:16.184Z,40.30
2022-07-25T12:37:44.576Z,40.30
2022-07-25T12:40:15.114Z,40.50
2022-07-25T12:42:43.342Z,40.40
2022-07-25T12:45:12.385Z,40.30
2022-07-25T12:47:40.431Z,39.10
2022-07-25T12:50:10.644Z,38.80
2022-07-25T12:52:39.140Z,38.60
2022-07-25T12:55:08.916Z,38.60
2022-07-25T12:57:37.744Z,38.80
2022-07-25T13:00:07.270Z,39.10
2022-07-25T13:02:35.478Z,39.40
2022-07-25T13:05:03.660Z,39.50
2022-07-25T13:07:33.855Z,39.00
2022-07-25T13:10:02.154Z,39.00
2022-07-25T13:12:30.234Z,38.60
2022-07-25T13:14:58.529Z,38.30
2022-07-25T13:17:27.864Z,38.10
2022-07-25T13:19:56.652Z,37.80
2022-07-25T13:22:25.236Z,37.50
2022-07-25T13:24:55.765Z,37.40
2022-07-25T13:27:24.084Z,37.40
2022-07-25T13:29:54.545Z,37.30
2022-07-25T13:32:23.293Z,37.10
2022-07-25T13:34:51.514Z,36.80
2022-07-25T13:37:19.709Z,36.50
2022-07-25T13:39:47.785Z,36.10
2022-07-25T13:42:17.283Z,35.80
2022-07-25T13:44:45.355Z,35.40
2022-07-25T13:47:13.531Z,35.10
2022-07-25T13:49:41.891Z,35.00
2022-07-25T13:52:10.031Z,34.80
2022-07-25T13:54:38.380Z,34.50
2022-07-25T13:57:06.502Z,34.30
2022-07-25T13:59:36.131Z,34.20
2022-07-25T14:02:04.311Z,34.10
2022-07-25T14:04:32.751Z,34.10
2022-07-25T14:07:01.215Z,34.00
2022-07-25T14:09:29.502Z,33.80
2022-07-25T14:11:57.694Z,33.70
2022-07-25T14:14:25.949Z,33.50
2022-07-25T14:16:55.648Z,33.20
2022-07-25T14:19:24.270Z,32.80
2022-07-25T14:21:52.334Z,32.50
2022-07-25T14:24:20.613Z,32.00
2022-07-25T14:26:49.679Z,31.60
2022-07-25T14:29:18.203Z,31.10
2022-07-25T14:31:46.699Z,30.60
2022-07-25T14:34:16.471Z,30.00
2022-07-25T14:36:47.623Z,29.50
2022-07-25T14:39:16.033Z,29.00
2022-07-25T14:41:44.343Z,28.60
2022-07-25T14:44:13.490Z,28.20
2022-07-25T14:46:43.002Z,27.70
2022-07-25T14:49:13.829Z,27.20
2022-07-25T14:51:45.400Z,26.70
2022-07-25T14:54:13.536Z,26.30
2022-07-25T14:56:41.934Z,26.20
2022-07-25T14:59:10.524Z,26.40
2022-07-25T15:01:40.000Z,26.60
2022-07-25T15:04:08.102Z,26.80
2022-07-25T15:06:37.097Z,26.90
2022-07-25T15:09:07.262Z,27.00
2022-07-25T15:11:35.584Z,27.20
2022-07-25T15:14:03.783Z,27.20
2022-07-25T15:16:32.014Z,27.30
2022-07-25T15:19:15.686Z,27.30
2022-07-25T15:21:44.946Z,27.50
2022-07-25T15:24:14.769Z,27.70
2022-07-25T15:26:43.077Z,27.70
2022-07-25T15:29:13.561Z,27.50
2022-07-25T15:31:41.710Z,27.40
2022-07-25T15:34:10.003Z,27.30
2022-07-25T15:36:38.090Z,27.10
2022-07-25T15:39:06.575Z,27.00
2022-07-25T15:41:36.521Z,26.90
2022-07-25T15:44:05.097Z,26.90
2022-07-25T15:46:33.251Z,26.90
2022-07-25T15:49:02.563Z,26.80
2022-07-25T15:51:30.807Z,26.90
2022-07-25T15:53:58.865Z,26.90
2022-07-25T15:56:26.941Z,26.90
2022-07-25T15:58:56.435Z,26.80
2022-07-25T16:01:24.601Z,26.80
2022-07-25T16:03:52.831Z,26.70
2022-07-25T16:06:21.618Z,26.60
2022-07-25T16:08:50.325Z,26.60
2022-07-25T16:11:25.139Z,26.60
2022-07-25T16:13:53.902Z,26.50
2022-07-25T16:16:23.714Z,26.30
2022-07-25T16:18:52.059Z,26.20
2022-07-25T16:21:20.211Z,26.10
2022-07-25T16:23:48.279Z,26.00
2022-07-25T16:26:16.322Z,25.90
2022-07-25T16:28:45.405Z,25.80
2022-07-25T16:31:13.799Z,25.70
2022-07-25T16:33:43.270Z,25.70
2022-07-25T16:36:12.208Z,25.80
2022-07-25T16:38:40.349Z,25.80
2022-07-25T16:41:08.392Z,25.80
2022-07-25T16:43:36.552Z,25.70
2022-07-25T16:46:04.869Z,25.70
2022-07-25T16:48:33.223Z,25.50
2022-07-25T16:51:02.732Z,25.40
2022-07-25T16:53:32.799Z,25.30
2022-07-25T16:56:01.000Z,25.20
2022-07-25T16:58:29.448Z,25.00
2022-07-25T17:00:57.539Z,24.90
2022-07-25T17:03:25.567Z,24.80
2022-07-25T17:05:54.742Z,24.90
2022-07-25T17:08:24.339Z,24.90
2022-07-25T17:10:52.587Z,24.80
2022-07-25T17:13:20.636Z,24.80
2022-07-25T17:15:48.945Z,24.70
2022-07-25T17:18:17.226Z,24.50
2022-07-25T17:20:45.377Z,24.40
2022-07-25T17:23:13.468Z,24.30
2022-07-25T17:25:46.209Z,24.30
2022-07-25T17:28:18.777Z,24.10
2022-07-25T17:30:47.254Z,24.00
2022-07-25T17:33:15.548Z,23.90
2022-07-25T17:35:43.861Z,23.80
2022-07-25T17:38:12.561Z,23.70
2022-07-25T17:40:44.057Z,23.70
2022-07-25T17:43:12.109Z,23.70
2022-07-25T17:45:40.238Z,23.90
2022-07-25T17:48:08.418Z,23.90
2022-07-25T17:50:36.618Z,24.00
2022-07-25T17:53:04.935Z,23.90
2022-07-25T17:55:38.542Z,23.90
2022-07-25T17:58:08.662Z,23.80
2022-07-25T18:00:36.714Z,23.70
2022-07-25T18:03:05.459Z,23.70
2022-07-25T18:05:33.640Z,23.60
2022-07-25T18:08:03.063Z,23.50
2022-07-25T18:10:31.487Z,23.50
2022-07-25T18:13:02.123Z,23.50
2022-07-25T18:15:31.758Z,23.50
2022-07-25T18:18:00.090Z,23.40
2022-07-25T18:20:28.984Z,23.40
2022-07-25T18:22:58.697Z,23.30
2022-07-25T18:25:27.315Z,23.20
2022-07-25T18:27:55.401Z,23.10
2022-07-25T18:30:28.721Z,23.00
2022-07-25T18:32:58.671Z,22.90
2022-07-25T18:35:26.817Z,22.90
2022-07-25T18:37:54.877Z,22.90
2022-07-25T18:40:23.239Z,22.90
2022-07-25T18:42:51.280Z,23.00
2022-07-25T18:45:19.423Z,23.10
2022-07-25T18:47:48.652Z,23.20
2022-07-25T18:50:20.197Z,23.20
2022-07-25T18:52:48.237Z,23.30
2022-07-25T18:55:16.392Z,23.40
2022-07-25T18:57:44.692Z,23.40
2022-07-25T19:00:13.163Z,23.40
2022-07-25T19:02:41.229Z,23.40
2022-07-25T19:05:10.194Z,23.30
2022-07-25T19:07:40.494Z,23.20
2022-07-25T19:10:09.792Z,23.20
2022-07-25T19:12:38.328Z,23.00
2022-07-25T19:15:07.835Z,22.80
2022-07-25T19:17:37.185Z,22.70
2022-07-25T19:20:06.254Z,22.60
2022-07-25T19:22:34.455Z,22.40
2022-07-25T19:25:07.494Z,22.30
2022-07-25T19:27:35.687Z,22.20
2022-07-25T19:30:06.838Z,22.10
2022-07-25T19:32:35.430Z,21.90
2022-07-25T19:35:03.896Z,21.90
2022-07-25T19:37:32.020Z,21.80
2022-07-25T19:40:00.173Z,21.70
2022-07-25T19:42:30.031Z,21.60
2022-07-25T19:44:58.159Z,21.50
2022-07-25T19:47:26.633Z,21.40
2022-07-25T19:49:54.752Z,21.40
2022-07-25T19:52:22.774Z,21.30
2022-07-25T19:54:50.958Z,21.30
2022-07-25T19:57:18.942Z,21.20
2022-07-25T19:59:48.342Z,21.10
2022-07-25T20:02:16.449Z,21.00
2022-07-25T20:04:44.581Z,20.90
2022-07-25T20:07:12.640Z,20.80
2022-07-25T20:09:40.809Z,20.70
2022-07-25T20:12:09.408Z,20.60
2022-07-25T20:14:37.483Z,20.50
2022-07-25T20:17:08.082Z,20.30
2022-07-25T20:19:36.781Z,20.20
2022-07-25T20:22:05.530Z,20.10
2022-07-25T20:24:33.709Z,20.00
2022-07-25T20:27:02.140Z,19.90
2022-07-25T20:29:30.204Z,19.80
2022-07-25T20:31:58.848Z,19.80
2022-07-25T20:34:28.267Z,19.70
2022-07-25T20:36:56.360Z,19.70
2022-07-25T20:39:26.266Z,19.70
2022-07-25T20:41:56.825Z,19.70
2022-07-25T20:44:24.858Z,19.80
2022-07-25T20:46:52.980Z,19.80
2022-07-25T20:49:21.096Z,19.80
2022-07-25T20:51:54.465Z,19.80
2022-07-25T20:54:22.937Z,19.80
2022-07-25T20:56:51.477Z,19.70
2022-07-25T20:59:19.614Z,19.70
2022-07-25T21:01:48.039Z,19.70
2022-07-25T21:04:16.890Z,19.70
2022-07-25T21:06:45.993Z,19.60
2022-07-25T21:09:15.790Z,19.60
2022-07-25T21:11:43.981Z,19.60
2022-07-25T21:14:12.217Z,19.60
2022-07-25T21:16:40.313Z,19.60
2022-07-25T21:19:08.968Z,19.60
2022-07-25T21:21:37.221Z,19.60
2022-07-25T21:24:06.485Z,19.60
2022-07-25T21:26:37.006Z,19.60
2022-07-25T21:29:05.385Z,19.60
2022-07-25T21:31:34.513Z,19.60
2022-07-25T21:34:03.220Z,19.60
2022-07-25T21:36:31.452Z,19.50
2022-07-25T21:38:59.462Z,19.50
2022-07-25T21:41:27.561Z,19.50
2022-07-25T21:43:56.953Z,19.50
2022-07-25T21:46:25.187Z,19.50
2022-07-25T21:49:11.037Z,19.50
2022-07-25T21:51:40.878Z,19.50
2022-07-25T21:54:09.649Z,19.50
2022-07-25T21:56:37.781Z,19.60
2022-07-25T21:59:07.455Z,19.60
2022-07-25T22:01:36.092Z,19.60
2022-07-25T22:04:05.122Z,19.60
2022-07-25T22:06:33.389Z,19.60
2022-07-25T22:09:01.584Z,19.60
2022-07-25T22:11:42.937Z,19.70
2022-07-25T22:14:16.631Z,19.70
2022-07-25T22:16:45.009Z,19.70
2022-07-25T22:19:13.493Z,19.70
2022-07-25T22:21:42.085Z,19.70
2022-07-25T22:24:10.851Z,19.70
2022-07-25T22:26:38.985Z,19.70
2022-07-25T22:29:07.616Z,19.70
2022-07-25T22:31:38.754Z,19.70
2022-07-25T22:34:07.546Z,19.70
2022-07-25T22:36:35.664Z,19.70
2022-07-25T22:39:04.130Z,19.70
2022-07-25T22:41:32.606Z,19.70
2022-07-25T22:44:00.645Z,19.70
2022-07-25T22:46:29.133Z,19.70
2022-07-25T22:48:59.800Z,19.70
2022-07-25T22:51:29.113Z,19.70
2022-07-25T22:53:57.764Z,19.70
2022-07-25T22:56:26.183Z,19.70
2022-07-25T22:58:54.680Z,19.60
2022-07-25T23:01:23.203Z,19.60
2022-07-25T23:03:51.546Z,19.60
2022-07-25T23:06:22.161Z,19.50
2022-07-25T23:08:50.575Z,19.50
2022-07-25T23:11:19.144Z,19.30
2022-07-25T23:13:47.424Z,19.20
2022-07-25T23:16:15.617Z,19.10
2022-07-25T23:18:43.855Z,19.00
2022-07-25T23:21:12.460Z,19.00
2022-07-25T23:23:41.878Z,18.90
2022-07-25T23:26:10.062Z,18.90
2022-07-25T23:28:38.227Z,18.90
2022-07-25T23:31:06.526Z,18.90
2022-07-25T23:33:34.622Z,19.00
2022-07-25T23:36:02.985Z,19.00
2022-07-25T23:38:31.073Z,19.00
2022-07-25T23:41:00.603Z,19.00
2022-07-25T23:43:56.686Z,19.00
2022-07-25T23:46:17.058Z,19.00
2022-07-25T23:48:46.955Z,19.10
2022-07-25T23:51:16.581Z,19.10
2022-07-25T23:53:45.072Z,19.10
2022-07-25T23:56:20.195Z,19.10
2022-07-25T23:58:50.242Z,19.10
